createdAt,value
2018-09-27T00:00:33.692Z,12.30
2018-09-27T00:03:03.030Z,12.30
2018-09-27T00:05:36.338Z,12.30
2018-09-27T00:08:06.134Z,12.30
2018-09-27T00:10:38.610Z,12.20
2018-09-27T00:13:07.866Z,12.30
2018-09-27T00:20:26.260Z,12.20
2018-09-27T00:22:55.826Z,12.10
2018-09-27T00:25:25.235Z,12.20
2018-09-27T00:27:54.626Z,12.20
2018-09-27T00:30:24.415Z,12.20
2018-09-27T00:32:53.658Z,12.00
2018-09-27T00:35:23.002Z,12.10
2018-09-27T00:37:53.700Z,12.10
2018-09-27T00:40:23.083Z,12.10
2018-09-27T00:42:56.103Z,12.10
2018-09-27T00:45:25.526Z,12.10
2018-09-27T00:48:02.251Z,12.10
2018-09-27T00:50:31.842Z,12.10
2018-09-27T00:53:02.390Z,12.10
2018-09-27T00:55:31.680Z,12.00
2018-09-27T00:58:06.714Z,12.00
2018-09-27T01:00:36.068Z,12.10
2018-09-27T01:03:09.134Z,12.10
2018-09-27T01:05:39.103Z,12.10
2018-09-27T01:08:16.415Z,12.10
2018-09-27T01:10:45.879Z,12.00
2018-09-27T01:13:15.251Z,12.10
2018-09-27T01:15:44.630Z,12.00
2018-09-27T01:18:17.114Z,12.00
2018-09-27T01:20:46.571Z,12.00
2018-09-27T01:23:19.561Z,12.00
2018-09-27T01:25:49.365Z,11.90
2018-09-27T01:28:21.852Z,11.90
2018-09-27T01:30:51.275Z,11.90
2018-09-27T01:33:24.163Z,11.80
2018-09-27T01:35:53.632Z,11.80
2018-09-27T01:38:26.955Z,11.70
2018-09-27T01:40:56.431Z,11.70
2018-09-27T01:43:29.110Z,11.60
2018-09-27T01:45:58.961Z,11.70
2018-09-27T01:48:31.946Z,11.70
2018-09-27T01:51:01.558Z,11.60
2018-09-27T01:53:34.266Z,11.60
2018-09-27T01:56:03.899Z,11.60
2018-09-27T01:58:40.746Z,11.60
2018-09-27T02:01:10.382Z,11.60
2018-09-27T02:03:40.054Z,11.60
2018-09-27T02:06:09.657Z,11.60
2018-09-27T02:08:42.656Z,11.50
2018-09-27T02:11:12.406Z,11.50
2018-09-27T02:13:45.953Z,11.50
2018-09-27T02:16:15.517Z,11.50
2018-09-27T02:18:48.104Z,11.50
2018-09-27T02:21:17.854Z,11.50
2018-09-27T02:23:50.366Z,11.50
2018-09-27T02:26:20.103Z,11.50
2018-09-27T02:28:57.007Z,11.40
2018-09-27T02:31:26.478Z,11.40
2018-09-27T02:33:56.459Z,11.30
2018-09-27T02:36:25.846Z,11.40
2018-09-27T02:38:59.049Z,11.40
2018-09-27T02:41:28.846Z,11.40
2018-09-27T02:44:05.338Z,11.40
2018-09-27T02:46:34.934Z,11.40
2018-09-27T02:49:06.167Z,11.30
2018-09-27T02:51:35.422Z,11.30
2018-09-27T02:54:08.676Z,11.30
2018-09-27T02:56:38.166Z,11.30
2018-09-27T02:59:16.290Z,11.30
2018-09-27T03:01:46.231Z,11.30
2018-09-27T03:04:15.654Z,11.30
2018-09-27T03:06:44.903Z,11.30
2018-09-27T03:09:17.711Z,11.30
2018-09-27T03:11:47.407Z,11.30
2018-09-27T03:14:20.330Z,11.20
2018-09-27T03:16:49.950Z,11.30
2018-09-27T03:19:23.235Z,11.20
2018-09-27T03:21:52.986Z,11.30
2018-09-27T03:24:26.907Z,11.30
2018-09-27T03:26:56.164Z,11.20
2018-09-27T03:29:28.756Z,11.20
2018-09-27T03:31:58.703Z,11.20
2018-09-27T03:34:31.587Z,11.20
2018-09-27T03:37:01.152Z,11.10
2018-09-27T03:39:38.125Z,11.20
2018-09-27T03:42:07.938Z,11.10
2018-09-27T03:44:37.373Z,11.10
2018-09-27T03:47:06.636Z,11.00
2018-09-27T03:49:43.712Z,11.00
2018-09-27T03:52:12.982Z,11.00
2018-09-27T03:54:43.127Z,11.00
2018-09-27T03:57:12.409Z,10.90
2018-09-27T03:59:49.127Z,10.90
2018-09-27T04:02:18.836Z,10.90
2018-09-27T04:04:48.640Z,10.90
2018-09-27T04:07:17.976Z,10.90
2018-09-27T04:09:57.471Z,10.90
2018-09-27T04:12:26.748Z,10.90
2018-09-27T04:14:56.086Z,10.90
2018-09-27T04:17:25.638Z,10.80
2018-09-27T04:19:57.162Z,10.90
2018-09-27T04:22:26.496Z,10.80
2018-09-27T04:25:03.399Z,10.80
2018-09-27T04:27:32.633Z,10.80
2018-09-27T04:30:03.819Z,10.90
2018-09-27T04:32:33.421Z,10.80
2018-09-27T04:35:09.991Z,10.70
2018-09-27T04:37:39.500Z,10.80
2018-09-27T04:40:10.743Z,10.80
2018-09-27T04:42:40.803Z,10.80
2018-09-27T04:45:13.973Z,10.80
2018-09-27T04:47:43.235Z,10.80
2018-09-27T04:50:20.800Z,10.80
2018-09-27T04:52:50.402Z,10.80
2018-09-27T04:55:19.772Z,10.80
2018-09-27T04:57:49.054Z,10.80
2018-09-27T05:00:21.555Z,10.80
2018-09-27T05:02:51.036Z,10.80
2018-09-27T05:05:28.395Z,10.80
2018-09-27T05:07:58.005Z,10.80
2018-09-27T05:10:27.375Z,10.80
2018-09-27T05:12:56.675Z,10.80
2018-09-27T05:15:28.515Z,10.70
2018-09-27T05:17:57.795Z,10.70
2018-09-27T05:20:34.959Z,10.70
2018-09-27T05:23:04.426Z,10.60
2018-09-27T05:25:35.254Z,10.60
2018-09-27T05:28:04.540Z,10.60
2018-09-27T05:30:41.869Z,10.60
2018-09-27T05:33:11.332Z,10.60
2018-09-27T05:35:40.627Z,10.50
2018-09-27T05:38:10.256Z,10.50
2018-09-27T05:40:43.278Z,10.60
2018-09-27T05:43:12.645Z,10.50
2018-09-27T05:45:45.672Z,10.50
2018-09-27T05:48:15.018Z,10.50
2018-09-27T05:50:51.565Z,10.50
2018-09-27T05:53:21.107Z,10.50
2018-09-27T05:55:51.426Z,10.60
2018-09-27T05:58:20.849Z,10.50
2018-09-27T06:00:55.381Z,10.60
2018-09-27T06:03:24.652Z,10.60
2018-09-27T06:05:57.288Z,10.50
2018-09-27T06:08:26.831Z,10.50
2018-09-27T06:11:03.839Z,10.60
2018-09-27T06:13:33.274Z,10.50
2018-09-27T06:16:03.411Z,10.60
2018-09-27T06:18:32.847Z,10.50
2018-09-27T06:21:10.436Z,10.60
2018-09-27T06:23:39.815Z,10.60
2018-09-27T06:26:10.603Z,10.70
2018-09-27T06:28:39.935Z,10.70
2018-09-27T06:31:14.331Z,10.70
2018-09-27T06:33:43.647Z,10.80
2018-09-27T06:36:16.353Z,10.80
2018-09-27T06:48:52.440Z,11.00
2018-09-27T06:51:23.271Z,11.00
2018-09-27T06:53:53.853Z,11.10
2018-09-27T06:56:26.661Z,11.20
2018-09-27T06:58:56.346Z,11.30
2018-09-27T07:01:29.122Z,11.30
2018-09-27T07:03:58.497Z,11.40
2018-09-27T07:06:32.405Z,11.40
2018-09-27T07:09:01.805Z,11.50
2018-09-27T07:11:35.183Z,11.60
2018-09-27T07:14:04.927Z,11.60
2018-09-27T07:16:41.352Z,11.70
2018-09-27T07:19:10.895Z,11.80
2018-09-27T07:21:41.308Z,12.00
2018-09-27T07:24:10.780Z,12.10
2018-09-27T07:26:43.874Z,12.10
2018-09-27T07:29:13.532Z,12.20
2018-09-27T07:31:47.858Z,12.30
2018-09-27T07:34:17.409Z,12.40
2018-09-27T07:36:50.860Z,12.50
2018-09-27T07:39:20.615Z,12.60
2018-09-27T07:41:52.305Z,12.70
2018-09-27T07:44:21.638Z,12.80
2018-09-27T07:46:58.523Z,12.80
2018-09-27T07:49:28.327Z,13.00
2018-09-27T07:51:58.022Z,13.10
2018-09-27T07:54:27.546Z,13.20
2018-09-27T07:57:04.179Z,13.30
2018-09-27T07:59:34.850Z,13.40
2018-09-27T08:02:04.300Z,13.50
2018-09-27T08:04:33.900Z,13.70
2018-09-27T08:07:07.437Z,13.80
2018-09-27T08:09:36.743Z,13.90
2018-09-27T08:12:10.950Z,14.00
2018-09-27T08:14:40.336Z,14.10
2018-09-27T08:17:17.408Z,14.30
2018-09-27T08:19:47.046Z,14.40
2018-09-27T08:22:16.818Z,14.40
2018-09-27T08:24:46.328Z,14.60
2018-09-27T08:27:19.430Z,14.70
2018-09-27T08:29:48.831Z,14.80
2018-09-27T08:32:21.508Z,15.00
2018-09-27T08:34:50.944Z,15.10
2018-09-27T08:37:28.843Z,15.20
2018-09-27T08:39:58.412Z,15.40
2018-09-27T08:42:29.278Z,15.60
2018-09-27T08:44:59.025Z,15.80
2018-09-27T08:47:31.423Z,16.20
2018-09-27T08:50:00.782Z,16.50
2018-09-27T08:52:34.278Z,16.90
2018-09-27T08:55:03.886Z,17.50
2018-09-27T08:57:36.559Z,18.00
2018-09-27T09:00:06.883Z,18.60
2018-09-27T09:02:40.953Z,19.20
2018-09-27T09:05:10.472Z,19.70
2018-09-27T09:07:42.422Z,20.20
2018-09-27T09:10:11.929Z,20.60
2018-09-27T09:12:44.070Z,21.00
2018-09-27T09:15:13.481Z,21.40
2018-09-27T09:17:50.726Z,21.80
2018-09-27T09:20:20.607Z,22.10
2018-09-27T09:22:50.555Z,22.40
2018-09-27T09:25:20.111Z,22.70
2018-09-27T09:27:55.455Z,23.00
2018-09-27T09:30:24.875Z,23.10
2018-09-27T09:32:56.252Z,23.40
2018-09-27T09:35:25.949Z,23.60
2018-09-27T09:37:59.298Z,23.90
2018-09-27T09:40:28.675Z,24.20
2018-09-27T09:43:02.979Z,24.20
2018-09-27T09:45:32.942Z,24.30
2018-09-27T09:48:05.511Z,24.50
2018-09-27T09:50:35.299Z,24.70
2018-09-27T09:53:08.726Z,24.90
2018-09-27T09:55:40.742Z,25.20
2018-09-27T09:58:32.334Z,25.20
2018-09-27T10:01:44.115Z,25.50
2018-09-27T10:04:55.944Z,25.70
2018-09-27T10:09:49.924Z,25.80
2018-09-27T10:12:19.342Z,25.80
2018-09-27T10:14:49.057Z,25.80
2018-09-27T10:17:22.595Z,25.80
2018-09-27T10:19:51.900Z,26.00
2018-09-27T10:22:24.287Z,26.30
2018-09-27T10:24:53.738Z,26.20
2018-09-27T10:27:25.752Z,26.00
2018-09-27T10:29:55.784Z,26.30
2018-09-27T10:32:28.628Z,26.20
2018-09-27T10:34:58.288Z,26.30
2018-09-27T10:37:34.671Z,26.30
2018-09-27T10:40:04.175Z,26.30
2018-09-27T10:42:33.604Z,26.20
2018-09-27T10:45:03.108Z,26.30
2018-09-27T10:47:36.493Z,26.50
2018-09-27T10:50:05.941Z,26.50
2018-09-27T10:52:39.205Z,26.80
2018-09-27T10:55:08.941Z,26.70
2018-09-27T10:57:45.517Z,26.90
2018-09-27T11:00:19.342Z,26.90
2018-09-27T11:02:49.135Z,26.80
2018-09-27T11:05:18.593Z,26.60
2018-09-27T11:07:47.998Z,26.80
2018-09-27T11:10:17.406Z,26.70
2018-09-27T11:12:50.509Z,26.80
2018-09-27T11:15:19.936Z,26.60
2018-09-27T11:17:52.478Z,26.50
2018-09-27T11:20:22.462Z,26.30
2018-09-27T11:22:55.444Z,26.10
2018-09-27T11:25:25.540Z,25.90
2018-09-27T11:27:59.658Z,25.80
2018-09-27T11:30:32.883Z,25.80
2018-09-27T11:33:02.979Z,25.70
2018-09-27T11:35:33.090Z,25.80
2018-09-27T11:38:06.050Z,25.80
2018-09-27T11:40:36.867Z,25.80
2018-09-27T11:43:09.436Z,26.00
2018-09-27T11:45:38.736Z,26.10
2018-09-27T11:48:12.810Z,26.00
2018-09-27T11:50:42.449Z,26.00
2018-09-27T11:53:15.075Z,26.00
2018-09-27T11:55:44.546Z,26.00
2018-09-27T11:58:18.075Z,25.80
2018-09-27T12:00:47.423Z,25.70
2018-09-27T12:03:19.826Z,25.40
2018-09-27T12:05:49.593Z,25.40
2018-09-27T12:08:22.371Z,25.20
2018-09-27T12:10:52.285Z,25.20
2018-09-27T12:13:25.109Z,25.00
2018-09-27T12:15:54.349Z,24.90
2018-09-27T12:18:27.260Z,24.80
2018-09-27T12:20:57.035Z,24.70
2018-09-27T12:23:29.696Z,24.70
2018-09-27T12:25:59.466Z,24.70
2018-09-27T12:28:32.299Z,24.70
2018-09-27T12:31:01.733Z,24.80
2018-09-27T12:33:34.882Z,24.70
2018-09-27T12:36:05.131Z,24.70
2018-09-27T12:38:35.923Z,24.80
2018-09-27T12:41:05.681Z,24.70
2018-09-27T12:43:38.900Z,24.60
2018-09-27T12:46:08.519Z,24.60
2018-09-27T12:48:42.554Z,24.70
2018-09-27T12:51:19.900Z,24.80
2018-09-27T12:53:55.998Z,24.90
2018-09-27T12:56:26.372Z,24.90
2018-09-27T12:58:55.988Z,25.00
2018-09-27T13:01:25.425Z,25.10
2018-09-27T13:03:56.075Z,25.10
2018-09-27T13:06:25.861Z,25.20
2018-09-27T13:08:55.189Z,25.20
2018-09-27T13:11:24.509Z,25.20
2018-09-27T13:13:59.190Z,25.30
2018-09-27T13:16:33.634Z,25.30
2018-09-27T13:19:03.747Z,25.60
2018-09-27T13:21:34.123Z,25.70
2018-09-27T13:24:05.393Z,25.70
2018-09-27T13:26:34.809Z,25.80
2018-09-27T13:29:08.327Z,25.90
2018-09-27T13:31:37.826Z,25.90
2018-09-27T13:34:14.255Z,26.00
2018-09-27T13:36:44.519Z,26.00
2018-09-27T13:39:13.896Z,25.90
2018-09-27T13:41:43.631Z,26.10
2018-09-27T13:44:15.710Z,26.20
2018-09-27T13:46:45.062Z,26.20
2018-09-27T13:49:17.942Z,26.10
2018-09-27T13:51:47.628Z,26.10
2018-09-27T13:54:20.436Z,26.10
2018-09-27T13:56:49.797Z,26.20
2018-09-27T13:59:26.669Z,26.30
2018-09-27T14:01:56.177Z,26.10
2018-09-27T14:04:25.563Z,26.10
2018-09-27T14:06:55.150Z,26.10
2018-09-27T14:09:32.061Z,26.10
2018-09-27T14:12:01.528Z,26.10
2018-09-27T14:14:34.315Z,26.10
2018-09-27T14:17:03.820Z,26.10
2018-09-27T14:19:34.249Z,26.00
2018-09-27T14:22:03.548Z,25.90
2018-09-27T14:24:37.336Z,25.80
2018-09-27T14:27:07.088Z,25.70
2018-09-27T14:29:40.557Z,25.70
2018-09-27T14:32:09.894Z,25.60
2018-09-27T14:34:42.550Z,25.60
2018-09-27T14:37:11.879Z,25.60
2018-09-27T14:39:45.332Z,25.60
2018-09-27T14:42:15.485Z,25.40
2018-09-27T14:44:48.946Z,25.30
2018-09-27T14:47:18.656Z,25.20
2018-09-27T14:49:52.556Z,25.10
2018-09-27T14:52:21.893Z,25.00
2018-09-27T14:54:54.203Z,24.90
2018-09-27T14:57:23.686Z,24.80
2018-09-27T15:00:01.497Z,24.70
2018-09-27T15:02:32.819Z,24.70
2018-09-27T15:05:02.803Z,24.60
2018-09-27T15:07:32.243Z,24.60
2018-09-27T15:10:03.600Z,24.60
2018-09-27T15:12:33.336Z,24.50
2018-09-27T15:15:09.762Z,24.40
2018-09-27T15:17:39.813Z,24.40
2018-09-27T15:20:09.279Z,24.20
2018-09-27T15:22:38.642Z,24.10
2018-09-27T15:25:15.358Z,24.10
2018-09-27T15:27:44.677Z,24.00
2018-09-27T15:30:14.825Z,24.00
2018-09-27T15:32:44.279Z,23.90
2018-09-27T15:35:17.965Z,23.90
2018-09-27T15:37:47.554Z,23.90
2018-09-27T15:40:20.706Z,23.80
2018-09-27T15:42:50.082Z,23.70
2018-09-27T15:45:22.542Z,23.70
2018-09-27T15:47:51.979Z,23.60
2018-09-27T15:50:28.387Z,23.60
2018-09-27T15:52:57.930Z,23.60
2018-09-27T15:55:27.644Z,23.50
2018-09-27T15:57:58.072Z,23.40
2018-09-27T16:00:30.074Z,23.30
2018-09-27T16:03:00.160Z,23.30
2018-09-27T16:05:32.074Z,23.10
2018-09-27T16:08:01.850Z,23.20
2018-09-27T16:10:34.916Z,23.10
2018-09-27T16:13:04.229Z,23.00
2018-09-27T16:15:37.317Z,23.00
2018-09-27T16:18:06.869Z,22.90
2018-09-27T16:20:39.685Z,22.90
2018-09-27T16:23:09.527Z,22.80
2018-09-27T16:25:41.898Z,22.80
2018-09-27T16:28:11.883Z,22.70
2018-09-27T16:30:45.068Z,22.70
2018-09-27T16:33:15.811Z,22.60
2018-09-27T16:35:47.996Z,22.60
2018-09-27T16:38:17.257Z,22.50
2018-09-27T16:40:54.483Z,22.40
2018-09-27T16:43:24.057Z,22.30
2018-09-27T16:45:53.591Z,22.20
2018-09-27T16:48:23.815Z,22.20
2018-09-27T16:50:56.609Z,22.20
2018-09-27T16:53:26.031Z,22.20
2018-09-27T16:56:03.227Z,22.20
2018-09-27T16:58:33.639Z,22.40
2018-09-27T17:01:02.953Z,22.50
2018-09-27T17:03:32.303Z,22.50
2018-09-27T17:06:09.792Z,22.40
2018-09-27T17:08:39.147Z,22.20
2018-09-27T17:11:09.073Z,22.00
2018-09-27T17:13:38.682Z,21.90
2018-09-27T17:16:15.604Z,21.80
2018-09-27T17:18:45.286Z,21.60
2018-09-27T17:21:14.807Z,21.40
2018-09-27T17:23:44.454Z,21.20
2018-09-27T17:26:17.718Z,21.10
2018-09-27T17:28:47.987Z,21.00
2018-09-27T17:31:19.908Z,20.90
2018-09-27T17:33:49.282Z,20.70
2018-09-27T17:36:22.470Z,20.70
2018-09-27T17:38:52.203Z,20.60
2018-09-27T17:41:24.679Z,20.40
2018-09-27T17:43:54.006Z,20.30
2018-09-27T17:46:26.998Z,20.20
2018-09-27T17:48:56.780Z,20.10
2018-09-27T17:51:29.670Z,20.00
2018-09-27T17:53:59.100Z,19.90
2018-09-27T17:56:32.667Z,19.80
2018-09-27T17:59:02.537Z,19.70
2018-09-27T18:01:36.638Z,19.60
2018-09-27T18:04:06.271Z,19.50
2018-09-27T18:06:39.747Z,19.40
2018-09-27T18:09:11.625Z,19.30
2018-09-27T18:11:41.703Z,19.30
2018-09-27T18:14:11.313Z,19.20
2018-09-27T18:16:44.056Z,19.10
2018-09-27T18:19:13.792Z,19.00
2018-09-27T18:21:46.514Z,19.00
2018-09-27T18:24:15.887Z,18.90
2018-09-27T18:26:48.874Z,18.90
2018-09-27T18:29:18.474Z,18.70
2018-09-27T18:31:52.444Z,18.70
2018-09-27T18:34:22.387Z,18.70
2018-09-27T18:36:53.789Z,18.60
2018-09-27T18:39:23.143Z,18.50
2018-09-27T18:42:00.292Z,18.50
2018-09-27T18:44:29.971Z,18.50
2018-09-27T18:47:00.155Z,18.30
2018-09-27T18:49:29.597Z,18.30
2018-09-27T18:52:02.780Z,18.30
2018-09-27T18:54:32.196Z,18.30
2018-09-27T18:57:11.001Z,18.20
2018-09-27T18:59:41.353Z,18.20
2018-09-27T19:02:13.590Z,18.20
2018-09-27T19:04:42.965Z,18.10
2018-09-27T19:07:13.641Z,18.10
2018-09-27T19:09:43.068Z,18.10
2018-09-27T19:12:16.729Z,18.00
2018-09-27T19:14:46.559Z,18.00
2018-09-27T19:17:17.615Z,18.00
2018-09-27T19:19:48.816Z,17.90
2018-09-27T19:22:20.046Z,17.90
2018-09-27T19:24:49.417Z,17.80
2018-09-27T19:27:23.046Z,17.80
2018-09-27T19:29:52.859Z,17.70
2018-09-27T19:32:23.981Z,17.80
2018-09-27T19:34:53.334Z,17.60
2018-09-27T19:37:30.443Z,17.60
2018-09-27T19:39:59.762Z,17.60
2018-09-27T19:42:29.335Z,17.50
2018-09-27T19:44:59.654Z,17.50
2018-09-27T19:47:32.562Z,17.40
2018-09-27T19:50:02.222Z,17.40
2018-09-27T19:52:35.485Z,17.30
2018-09-27T19:55:05.036Z,17.30
2018-09-27T19:57:37.684Z,17.30
2018-09-27T20:00:07.906Z,17.20
2018-09-27T20:02:41.199Z,17.20
2018-09-27T20:05:10.876Z,17.20
2018-09-27T20:07:41.893Z,17.10
2018-09-27T20:10:11.352Z,17.10
2018-09-27T20:12:48.348Z,17.00
2018-09-27T20:15:17.728Z,17.00
2018-09-27T20:17:48.102Z,16.90
2018-09-27T20:20:17.626Z,16.90
2018-09-27T20:22:55.369Z,16.80
2018-09-27T20:25:24.776Z,16.80
2018-09-27T20:27:54.188Z,16.80
2018-09-27T20:30:24.087Z,16.70
2018-09-27T20:32:56.997Z,16.70
2018-09-27T20:35:26.357Z,16.70
2018-09-27T20:38:00.211Z,16.60
2018-09-27T20:40:30.123Z,16.60
2018-09-27T20:43:02.947Z,16.60
2018-09-27T20:45:32.566Z,16.50
2018-09-27T20:48:05.732Z,16.50
2018-09-27T20:50:35.088Z,16.50
2018-09-27T20:53:08.750Z,16.50
2018-09-27T20:55:38.323Z,16.50
2018-09-27T20:58:15.102Z,16.40
2018-09-27T21:00:44.847Z,16.40
2018-09-27T21:03:14.479Z,16.40
2018-09-27T21:05:43.705Z,16.40
2018-09-27T21:08:20.583Z,16.40
2018-09-27T21:10:49.942Z,16.40
2018-09-27T21:13:19.418Z,16.40
2018-09-27T21:15:50.173Z,16.40
2018-09-27T21:18:21.504Z,16.30
2018-09-27T21:20:50.838Z,16.30
2018-09-27T21:23:25.036Z,16.30
2018-09-27T21:25:54.657Z,16.30
2018-09-27T21:28:27.902Z,16.20
2018-09-27T21:30:57.956Z,16.20
2018-09-27T21:33:29.200Z,16.20
2018-09-27T21:35:58.486Z,16.10
2018-09-27T21:38:31.484Z,16.10
2018-09-27T21:41:00.834Z,16.00
2018-09-27T21:43:33.701Z,16.00
2018-09-27T21:46:03.420Z,16.00
2018-09-27T21:48:36.195Z,15.90
2018-09-27T21:51:05.462Z,15.90
2018-09-27T21:53:42.893Z,15.80
2018-09-27T21:56:12.151Z,15.80
2018-09-27T21:58:43.315Z,15.80
2018-09-27T22:01:13.321Z,15.80
2018-09-27T22:03:47.099Z,15.70
2018-09-27T22:06:16.554Z,15.60
2018-09-27T22:08:48.097Z,15.60
2018-09-27T22:11:17.531Z,15.60
2018-09-27T22:13:52.119Z,15.50
2018-09-27T22:16:21.894Z,15.50
2018-09-27T22:18:55.102Z,15.40
2018-09-27T22:21:24.390Z,15.40
2018-09-27T22:23:57.143Z,15.40
2018-09-27T22:26:27.013Z,15.30
2018-09-27T22:28:59.937Z,15.30
2018-09-27T22:31:29.610Z,15.30
2018-09-27T22:34:06.547Z,15.20
2018-09-27T22:36:37.005Z,15.20
2018-09-27T22:39:07.703Z,15.10
2018-09-27T22:41:36.996Z,15.10
2018-09-27T22:44:10.260Z,15.10
2018-09-27T22:46:39.617Z,15.00
2018-09-27T22:49:16.785Z,15.00
2018-09-27T22:51:46.012Z,14.90
2018-09-27T22:54:15.387Z,14.90
2018-09-27T22:56:45.406Z,14.90
2018-09-27T22:59:18.051Z,14.80
2018-09-27T23:01:47.624Z,14.80
2018-09-27T23:04:20.283Z,14.70
2018-09-27T23:06:49.526Z,14.70
2018-09-27T23:09:22.703Z,14.60
2018-09-27T23:11:51.966Z,14.60
2018-09-27T23:14:24.339Z,14.60
2018-09-27T23:16:54.855Z,14.50
2018-09-27T23:19:26.605Z,14.50
2018-09-27T23:21:56.315Z,14.50
2018-09-27T23:24:29.319Z,14.40
2018-09-27T23:26:59.105Z,14.40
2018-09-27T23:29:32.318Z,14.50
2018-09-27T23:32:01.870Z,14.50
2018-09-27T23:34:34.541Z,14.50
2018-09-27T23:37:03.715Z,14.40
2018-09-27T23:39:35.881Z,14.40
2018-09-27T23:42:05.149Z,14.40
2018-09-27T23:44:41.477Z,14.40
2018-09-27T23:47:10.949Z,14.40
2018-09-27T23:49:42.455Z,14.40
2018-09-27T23:52:11.747Z,14.30
2018-09-27T23:54:44.880Z,14.40
2018-09-27T23:57:14.076Z,14.40
2018-09-27T23:59:47.116Z,14.30
